Time;durP1;ratioP1;P1;durP2;ratioP2;P2;SDS_P1;SDS_P2;PMS_P1;PMS_P2;Temp;Humidity;BMP_temperature;BMP_pressure;BME280_temperature;BME280_humidity;BME280_pressure;Samples;Min_cycle;Max_cycle;Signal;HPM_P1;HPM_P2
2021/12/09 00:01:24;;;;;;;44.95;23.08;;;;;;;4.46;100.00;99120.06;4925719;28;20050;-53
2021/12/09 00:04:02;;;;;;;42.47;23.48;;;;;;;4.43;100.00;99125.41;4963519;28;20117;-52
2021/12/09 00:06:37;;;;;;;44.03;23.95;;;;;;;4.44;100.00;99131.53;4975040;28;20061;-52
2021/12/09 00:09:15;;;;;;;43.30;22.48;;;;;;;4.45;100.00;99123.59;4970121;28;20412;-51
2021/12/09 00:11:44;;;;;;;42.40;23.15;;;;;;;4.39;100.00;99126.50;4962520;28;20050;-53
2021/12/09 00:14:25;;;;;;;41.75;22.92;;;;;;;4.36;100.00;99124.00;4950979;28;20047;-53
2021/12/09 00:16:58;;;;;;;44.35;24.35;;;;;;;4.32;100.00;99126.78;4971704;28;20050;-53
2021/12/09 00:19:25;;;;;;;44.55;22.77;;;;;;;4.34;100.00;99125.81;4972783;28;20048;-51
2021/12/09 00:21:52;;;;;;;45.20;23.63;;;;;;;4.34;100.00;99125.81;4966698;28;20504;-54
2021/12/09 00:24:19;;;;;;;39.90;22.55;;;;;;;4.37;100.00;99133.56;4960515;28;20424;-53
2021/12/09 00:26:52;;;;;;;39.42;22.80;;;;;;;4.33;100.00;99131.97;4966534;28;20047;-54
2021/12/09 00:29:32;;;;;;;39.30;22.50;;;;;;;4.34;100.00;99140.69;4965735;28;20062;-52
2021/12/09 00:32:15;;;;;;;44.83;22.67;;;;;;;4.35;100.00;99143.25;4962963;28;20043;-53
2021/12/09 00:34:45;;;;;;;41.85;21.63;;;;;;;4.39;100.00;99143.97;4961710;28;20126;-53
2021/12/09 00:40:12;;;;;;;37.30;21.15;;;;;;;4.33;100.00;99137.22;4932366;28;20081;-51
2021/12/09 00:42:39;;;;;;;44.20;22.90;;;;;;;4.33;100.00;99138.97;4964706;28;20424;-54
2021/12/09 00:45:26;;;;;;;41.25;21.92;;;;;;;4.33;100.00;99144.22;4972071;28;20366;-51
2021/12/09 00:47:53;;;;;;;38.08;21.33;;;;;;;4.29;100.00;99140.03;4971539;28;20061;-53
2021/12/09 00:50:27;;;;;;;38.22;21.63;;;;;;;4.29;100.00;99156.59;4973400;28;20043;-54
2021/12/09 00:53:00;;;;;;;38.33;21.10;;;;;;;4.33;100.00;99149.47;4966052;28;20547;-53
2021/12/09 00:55:34;;;;;;;40.40;21.58;;;;;;;4.32;100.00;99143.38;4969023;28;20058;-53
2021/12/09 00:58:08;;;;;;;42.00;21.27;;;;;;;4.26;100.00;99142.75;4972682;28;20535;-53
2021/12/09 01:00:35;;;;;;;36.83;20.98;;;;;;;4.22;100.00;99152.53;4958360;28;20527;-52
2021/12/09 01:03:01;;;;;;;35.58;20.67;;;;;;;4.22;100.00;99152.53;4964083;28;20050;-51
2021/12/09 01:05:28;;;;;;;36.10;20.55;;;;;;;4.21;100.00;99150.84;4955969;28;20043;-52
2021/12/09 01:08:07;;;;;;;38.92;20.42;;;;;;;4.16;100.00;99152.78;4967276;28;20500;-51
2021/12/09 01:10:41;;;;;;;38.60;19.58;;;;;;;4.13;100.00;99152.91;4967599;28;20050;-53
2021/12/09 01:13:19;;;;;;;38.25;20.98;;;;;;;4.10;100.00;99150.41;4955928;28;20133;-52
2021/12/09 01:15:54;;;;;;;37.20;20.75;;;;;;;4.04;100.00;99151.50;4971505;28;20744;-53
2021/12/09 01:18:23;;;;;;;42.10;20.88;;;;;;;4.01;100.00;99159.50;4968064;28;20054;-53
2021/12/09 01:20:55;;;;;;;41.33;21.05;;;;;;;3.95;100.00;99154.50;4970828;28;20047;-52
2021/12/09 01:23:29;;;;;;;38.67;20.38;;;;;;;3.91;100.00;99154.69;4961683;28;20051;-52
2021/12/09 01:26:01;;;;;;;35.25;19.45;;;;;;;3.91;100.00;99162.53;4970008;28;20172;-52
2021/12/09 01:28:55;;;;;;;41.72;21.40;;;;;;;3.87;100.00;99160.03;4973273;28;20042;-54
2021/12/09 01:31:38;;;;;;;35.55;20.67;;;;;;;3.86;100.00;99165.34;4968464;28;20043;-54
2021/12/09 01:34:07;;;;;;;40.58;20.20;;;;;;;3.85;100.00;99164.47;4953286;28;20607;-53
2021/12/09 01:36:38;;;;;;;41.83;20.38;;;;;;;3.84;100.00;99165.41;4972168;28;20057;-52
2021/12/09 01:39:08;;;;;;;;;;;;;;;3.87;100.00;99167.91;4978294;28;20047;-54
2021/12/09 01:41:34;;;;;;;40.15;19.50;;;;;;;3.80;100.00;99157.72;4970940;28;19973;-52
2021/12/09 01:44:02;;;;;;;37.30;20.70;;;;;;;3.83;100.00;99163.69;4964826;28;20093;-59
2021/12/09 01:46:28;;;;;;;33.42;19.70;;;;;;;3.93;100.00;99171.19;4971475;28;20050;-53
2021/12/09 01:48:55;;;;;;;38.35;20.40;;;;;;;3.97;100.00;99170.13;4978543;28;20051;-59
2021/12/09 01:51:21;;;;;;;36.03;18.77;;;;;;;3.82;100.00;99169.84;4973585;28;20042;-52
2021/12/09 01:54:24;;;;;;;;;;;;;;;;;;;;;
2021/12/09 01:56:54;;;;;;;39.50;19.48;;;;;;;3.63;100.00;99176.69;4968939;28;20039;-53
2021/12/09 01:59:32;;;;;;;38.78;19.95;;;;;;;3.59;100.00;99175.13;4971944;28;20129;-53
2021/12/09 02:02:01;;;;;;;35.63;19.85;;;;;;;3.53;100.00;99170.09;4971679;28;20059;-53
2021/12/09 02:04:33;;;;;;;39.10;19.85;;;;;;;3.47;100.00;99168.56;4962613;28;20113;-53
2021/12/09 02:07:17;;;;;;;35.95;18.80;;;;;;;3.42;100.00;99167.06;4968824;28;20053;-54
2021/12/09 02:09:51;;;;;;;41.17;20.63;;;;;;;3.29;100.00;99153.59;4966188;28;20515;-53
2021/12/09 02:12:22;;;;;;;40.05;20.67;;;;;;;3.38;100.00;99170.69;4973682;28;20051;-53
2021/12/09 02:14:48;;;;;;;39.90;19.75;;;;;;;3.36;100.00;99164.66;4962896;28;20062;-51
2021/12/09 02:17:15;;;;;;;35.55;19.50;;;;;;;3.30;100.00;99159.66;4971747;28;20050;-53
2021/12/09 02:19:59;;;;;;;40.33;20.13;;;;;;;3.26;100.00;99158.91;4972183;28;20484;-53
2021/12/09 02:22:36;;;;;;;38.75;21.05;;;;;;;3.23;100.00;99158.16;4966530;28;20054;-54
2021/12/09 02:25:05;;;;;;;42.05;20.42;;;;;;;3.21;100.00;99160.84;4965231;28;20047;-53
2021/12/09 02:27:43;;;;;;;37.22;19.60;;;;;;;3.18;100.00;99161.81;4975576;28;20039;-53
2021/12/09 02:30:18;;;;;;;41.85;20.77;;;;;;;3.18;100.00;99167.03;4970174;28;20043;-52
2021/12/09 02:32:54;;;;;;;37.40;19.47;;;;;;;3.10;100.00;99156.00;4968782;28;20046;-54
2021/12/09 02:35:21;;;;;;;39.75;20.20;;;;;;;3.05;100.00;99155.31;4967147;28;20058;-54
2021/12/09 02:37:49;;;;;;;43.80;21.65;;;;;;;3.12;100.00;99176.88;4972898;28;20393;-53
2021/12/09 02:40:17;;;;;;;40.53;20.77;;;;;;;3.08;100.00;99173.53;4967422;28;20043;-51
2021/12/09 02:42:43;;;;;;;43.38;21.48;;;;;;;3.07;100.00;99179.66;4968467;28;20050;-53
2021/12/09 02:45:11;;;;;;;37.08;19.98;;;;;;;3.02;100.00;99176.34;4962147;28;20183;-52
2021/12/09 02:47:44;;;;;;;37.95;19.92;;;;;;;3.04;100.00;99178.91;4951182;28;20083;-52
2021/12/09 02:50:11;;;;;;;43.53;20.05;;;;;;;2.97;100.00;99182.66;4965100;28;20046;-52
2021/12/09 02:52:51;;;;;;;44.92;21.13;;;;;;;2.94;100.00;99178.38;4968979;28;20050;-52
2021/12/09 02:55:21;;;;;;;34.10;18.27;;;;;;;2.97;100.00;99180.91;4956949;28;20054;-53
2021/12/09 02:58:02;;;;;;;36.67;19.73;;;;;;;2.88;100.00;99162.06;4972409;28;20046;-52
2021/12/09 03:00:57;;;;;;;39.95;19.05;;;;;;;2.97;100.00;99173.06;4970345;28;20436;-52
2021/12/09 03:03:25;;;;;;;37.70;18.95;;;;;;;2.95;100.00;99179.25;4962243;28;20614;-52
2021/12/09 03:05:56;;;;;;;40.10;18.60;;;;;;;2.94;100.00;99183.63;4962709;28;20496;-52
2021/12/09 03:08:34;;;;;;;38.38;19.55;;;;;;;2.95;100.00;99181.88;4967146;28;20074;-53
2021/12/09 03:11:17;;;;;;;40.25;18.67;;;;;;;2.95;100.00;99190.56;4968390;28;20100;-52
2021/12/09 03:13:49;;;;;;;40.33;19.80;;;;;;;2.97;100.00;99198.34;4961667;28;20501;-51
2021/12/09 03:16:25;;;;;;;37.28;19.20;;;;;;;2.99;100.00;99192.13;4971629;28;20038;-53
2021/12/09 03:19:07;;;;;;;37.58;19.48;;;;;;;2.99;100.00;99189.53;4970217;28;20046;-53
2021/12/09 03:22:10;;;;;;;35.95;17.98;;;;;;;3.02;100.00;99196.41;4962420;28;20051;-51
2021/12/09 03:24:40;;;;;;;36.08;18.67;;;;;;;3.00;100.00;99199.06;4963018;28;20416;-56
2021/12/09 03:27:10;;;;;;;36.13;17.35;;;;;;;3.05;100.00;99202.38;4971093;28;20513;-52
2021/12/09 03:29:38;;;;;;;32.38;17.38;;;;;;;2.93;100.00;99188.91;4971639;28;20055;-52
2021/12/09 03:32:11;;;;;;;31.10;16.85;;;;;;;3.02;100.00;99209.47;4968573;28;20355;-53
2021/12/09 03:34:57;;;;;;;32.72;17.23;;;;;;;2.98;100.00;99213.13;4963994;28;20046;-54
2021/12/09 03:37:25;;;;;;;31.15;15.95;;;;;;;2.95;100.00;99221.94;4965093;28;20046;-51
2021/12/09 03:39:52;;;;;;;32.30;15.70;;;;;;;2.95;100.00;99226.31;4973631;28;20050;-53
2021/12/09 03:42:24;;;;;;;27.73;15.45;;;;;;;2.94;100.00;99225.47;4953838;28;20513;-52
2021/12/09 03:47:50;;;;;;;30.60;15.48;;;;;;;2.83;100.00;99242.44;4897386;29;20052;-54
2021/12/09 03:50:21;;;;;;;32.30;16.42;;;;;;;2.82;100.00;99257.25;4896476;29;20054;-52
2021/12/09 03:52:49;;;;;;;30.20;15.65;;;;;;;2.80;100.00;99265.16;4926015;28;20043;-53
2021/12/09 03:55:15;;;;;;;32.85;16.42;;;;;;;2.84;100.00;99265.88;4941735;28;20058;-50
2021/12/09 03:57:44;;;;;;;27.30;15.32;;;;;;;2.85;100.00;99272.81;4958978;28;20062;-53
2021/12/09 04:00:13;;;;;;;27.80;15.85;;;;;;;2.87;100.00;99268.41;4943018;28;20121;-54
2021/12/09 04:02:40;;;;;;;32.38;16.48;;;;;;;2.89;100.00;99273.56;4946560;28;20047;-53
2021/12/09 04:05:14;;;;;;;;;;;;;;;2.92;100.00;99274.34;4941171;28;20091;-53
2021/12/09 04:07:48;;;;;;;32.72;17.08;;;;;;;2.87;100.00;99254.47;4952378;28;19926;-54
2021/12/09 04:10:15;;;;;;;32.63;16.30;;;;;;;2.97;100.00;99259.34;4945659;28;20377;-52
2021/12/09 04:12:45;;;;;;;30.13;16.17;;;;;;;2.99;100.00;99244.44;4958184;28;20057;-52
2021/12/09 04:15:12;;;;;;;30.13;15.50;;;;;;;3.00;100.00;99254.00;4937280;28;20047;-54
2021/12/09 04:17:38;;;;;;;28.70;16.05;;;;;;;2.91;100.00;99235.16;4948636;28;20531;-53
2021/12/09 04:20:20;;;;;;;;;;;;;;;;;;;;;
2021/12/09 04:22:49;;;;;;;32.83;15.77;;;;;;;2.94;100.00;99251.59;4946966;28;20047;-52
2021/12/09 04:25:17;;;;;;;27.92;14.77;;;;;;;2.83;100.00;99241.50;4943918;28;20043;-52
2021/12/09 04:27:46;;;;;;;29.20;15.43;;;;;;;2.91;100.00;99256.94;4955632;28;20053;-53
2021/12/09 04:30:25;;;;;;;27.27;15.07;;;;;;;2.92;100.00;99258.66;4940308;28;20090;-52
2021/12/09 04:33:00;;;;;;;27.10;15.00;;;;;;;2.95;100.00;99257.69;4948577;28;20082;-51
2021/12/09 04:35:37;;;;;;;24.97;14.37;;;;;;;3.01;100.00;99263.56;4947149;28;20047;-52
2021/12/09 04:38:04;;;;;;;28.23;15.48;;;;;;;2.98;100.00;99260.22;4950123;28;20477;-52
2021/12/09 04:40:47;;;;;;;32.33;16.00;;;;;;;2.91;100.00;99261.31;4955040;28;20054;-53
2021/12/09 04:43:18;;;;;;;24.67;14.23;;;;;;;2.89;100.00;99257.88;4969768;28;20077;-55
2021/12/09 04:46:01;;;;;;;29.55;14.95;;;;;;;2.89;100.00;99260.50;4966731;28;20057;-53
2021/12/09 04:48:28;;;;;;;25.13;13.45;;;;;;;2.86;100.00;99264.06;4963190;28;20425;-52
2021/12/09 04:50:55;;;;;;;24.13;13.73;;;;;;;2.82;100.00;99262.50;4973039;28;20043;-52
2021/12/09 04:53:23;;;;;;;22.38;12.40;;;;;;;2.81;100.00;99260.78;4966567;28;20054;-52
2021/12/09 04:55:59;;;;;;;19.95;11.75;;;;;;;2.85;100.00;99264.97;4961840;28;20047;-52
2021/12/09 04:58:41;;;;;;;22.00;11.85;;;;;;;2.83;100.00;99258.97;4969916;28;20056;-55
2021/12/09 05:01:30;;;;;;;24.25;12.60;;;;;;;2.79;100.00;99250.38;4973399;28;20043;-54
2021/12/09 05:04:49;;;;;;;23.40;12.07;;;;;;;2.77;100.00;99259.16;4954295;28;20049;-52
2021/12/09 05:07:22;;;;;;;21.60;11.23;;;;;;;2.76;100.00;99265.28;4961919;28;20394;-52
2021/12/09 05:09:53;;;;;;;21.40;11.07;;;;;;;2.79;100.00;99267.81;4966786;28;20047;-53
2021/12/09 05:12:21;;;;;;;17.98;10.52;;;;;;;2.74;100.00;99265.34;4958657;28;20053;-53
2021/12/09 05:14:54;;;;;;;18.83;10.80;;;;;;;2.73;100.00;99268.84;4960189;28;20043;-57
2021/12/09 05:17:23;;;;;;;20.67;10.90;;;;;;;2.73;100.00;99255.78;4973635;28;20052;-51
2021/12/09 05:20:09;;;;;;;25.45;12.43;;;;;;;2.78;100.00;99260.88;4968804;28;20043;-53
2021/12/09 05:22:38;;;;;;;21.58;11.00;;;;;;;2.72;100.00;99261.06;4964674;28;20065;-53
2021/12/09 05:25:07;;;;;;;21.35;11.45;;;;;;;2.81;100.00;99273.84;4960835;28;20097;-54
2021/12/09 05:27:41;;;;;;;20.02;11.05;;;;;;;2.79;100.00;99275.66;4970474;28;20050;-52
2021/12/09 05:30:24;;;;;;;18.73;10.90;;;;;;;2.80;100.00;99274.75;4969261;28;20043;-54
2021/12/09 05:32:54;;;;;;;21.70;10.75;;;;;;;2.73;100.00;99284.53;4974129;28;20412;-54
2021/12/09 05:35:24;;;;;;;19.48;10.25;;;;;;;2.74;100.00;99285.41;4965898;28;20052;-53
2021/12/09 05:37:52;;;;;;;18.50;10.17;;;;;;;2.73;100.00;99289.78;4971983;28;20053;-53
2021/12/09 05:40:40;;;;;;;20.05;10.60;;;;;;;2.75;100.00;99292.34;4972531;28;20038;-53
2021/12/09 05:43:19;;;;;;;20.23;10.05;;;;;;;2.78;100.00;99292.25;4953673;28;20043;-52
2021/12/09 05:45:50;;;;;;;22.65;10.07;;;;;;;2.79;100.00;99294.81;4943558;28;20610;-53
2021/12/09 05:48:17;;;;;;;20.83;10.80;;;;;;;2.75;100.00;99292.34;4951047;28;20179;-53
2021/12/09 05:50:44;;;;;;;19.63;10.43;;;;;;;2.71;100.00;99301.19;4946793;28;20493;-52
2021/12/09 05:53:15;;;;;;;19.35;9.60;;;;;;;2.66;100.00;99290.03;4952758;28;20070;-52
2021/12/09 05:55:51;;;;;;;23.38;9.52;;;;;;;2.65;100.00;99296.16;4945887;28;20055;-52
2021/12/09 05:58:20;;;;;;;23.25;9.00;;;;;;;2.57;100.00;99293.78;4942816;28;20057;-52
2021/12/09 06:00:52;;;;;;;21.33;8.95;;;;;;;2.56;100.00;99294.69;4949164;28;20139;-54
2021/12/09 06:03:24;;;;;;;16.77;8.60;;;;;;;2.51;100.00;99293.16;4950611;28;20134;-52
2021/12/09 06:05:57;;;;;;;18.60;9.18;;;;;;;2.43;100.00;99299.44;4944489;28;20057;-51
2021/12/09 06:08:36;;;;;;;18.95;8.95;;;;;;;2.38;100.00;99298.72;4946642;28;20126;-53
2021/12/09 06:11:17;;;;;;;16.83;7.65;;;;;;;2.35;100.00;99303.22;4951838;28;20046;-52
2021/12/09 06:13:48;;;;;;;21.45;8.90;;;;;;;2.29;100.00;99290.34;4948484;28;20057;-54
2021/12/09 06:16:29;;;;;;;18.70;8.13;;;;;;;2.44;100.00;99310.75;4940088;28;20040;-52
2021/12/09 06:19:09;;;;;;;16.38;8.10;;;;;;;2.45;100.00;99307.25;4949587;28;20046;-52
2021/12/09 06:21:39;;;;;;;16.02;8.07;;;;;;;2.43;100.00;99302.06;4952297;28;20061;-52
2021/12/09 06:24:07;;;;;;;20.60;8.07;;;;;;;2.44;100.00;99303.78;4956550;28;20082;-53
2021/12/09 06:26:35;;;;;;;19.95;8.00;;;;;;;2.44;100.00;99319.47;4938685;28;20197;-52
2021/12/09 06:29:08;;;;;;;23.52;9.13;;;;;;;2.45;100.00;99317.69;4953669;28;20050;-54
2021/12/09 06:31:43;;;;;;;17.10;8.27;;;;;;;2.41;100.00;99322.16;4950353;28;20051;-52
2021/12/09 06:34:12;;;;;;;19.92;9.25;;;;;;;2.44;100.00;99324.69;4946727;28;20405;-51
2021/12/09 06:36:42;;;;;;;13.68;7.20;;;;;;;2.40;100.00;99325.66;4947443;28;20043;-53
2021/12/09 06:39:12;;;;;;;19.30;9.70;;;;;;;2.38;100.00;99327.47;4951201;28;20047;-55
2021/12/09 06:41:50;;;;;;;17.98;9.68;;;;;;;2.36;100.00;99331.06;4961558;28;20069;-55
2021/12/09 06:44:21;;;;;;;20.08;9.85;;;;;;;2.31;100.00;99335.56;4972651;28;20062;-53
2021/12/09 06:46:49;;;;;;;18.98;10.02;;;;;;;2.30;100.00;99337.31;4961238;28;20064;-52
2021/12/09 06:49:20;;;;;;;16.60;10.15;;;;;;;2.23;100.00;99335.78;4966818;28;20050;-52
2021/12/09 06:51:51;;;;;;;20.50;9.60;;;;;;;2.23;100.00;99340.16;4967281;28;20053;-52
2021/12/09 06:54:29;;;;;;;18.77;9.68;;;;;;;2.19;100.00;99346.38;4971234;28;20505;-52
2021/12/09 06:56:57;;;;;;;17.95;10.38;;;;;;;2.13;100.00;99344.78;4971107;28;20042;-52
2021/12/09 06:59:33;;;;;;;19.60;9.63;;;;;;;2.07;100.00;99344.97;4972965;28;20042;-53
2021/12/09 07:02:03;;;;;;;18.00;9.85;;;;;;;2.04;100.00;99343.31;4971440;28;20050;-53
2021/12/09 07:04:30;;;;;;;19.73;9.52;;;;;;;2.01;100.00;99343.41;4967761;28;20050;-54
2021/12/09 07:07:08;;;;;;;18.48;9.02;;;;;;;2.01;100.00;99355.59;4966236;28;20043;-53
2021/12/09 07:09:37;;;;;;;22.23;10.00;;;;;;;2.00;100.00;99348.66;4968926;28;20050;-54
2021/12/09 07:12:20;;;;;;;18.38;8.73;;;;;;;2.01;100.00;99351.25;4982685;28;20043;-54
2021/12/09 07:15:10;;;;;;;23.15;9.10;;;;;;;2.01;100.00;99356.47;4980316;28;20046;-55
2021/12/09 07:17:44;;;;;;;16.17;8.77;;;;;;;2.01;100.00;99358.22;4966229;28;20524;-53
2021/12/09 07:20:18;;;;;;;19.13;8.48;;;;;;;2.00;100.00;99366.94;4979418;28;20050;-52
2021/12/09 07:22:57;;;;;;;24.58;9.13;;;;;;;2.00;100.00;99377.41;4970654;28;20408;-50
2021/12/09 07:25:27;;;;;;;15.60;9.15;;;;;;;2.00;100.00;99387.84;4956580;28;20122;-52
2021/12/09 07:27:58;;;;;;;16.67;9.23;;;;;;;1.99;100.00;99384.38;4961770;28;20129;-53
2021/12/09 07:30:31;;;;;;;17.50;9.02;;;;;;;2.08;100.00;99393.69;4963845;28;20449;-52
2021/12/09 07:32:58;;;;;;;22.08;9.82;;;;;;;1.95;100.00;99379.28;4959819;28;20042;-52
2021/12/09 07:35:35;;;;;;;18.77;9.77;;;;;;;2.02;100.00;99393.88;4960611;28;20055;-53
2021/12/09 07:38:07;;;;;;;22.85;11.05;;;;;;;1.97;100.00;99395.75;4962894;28;20053;-52
2021/12/09 07:40:38;;;;;;;24.88;10.38;;;;;;;1.96;100.00;99400.13;4961389;28;20082;-54
2021/12/09 07:43:20;;;;;;;24.67;10.77;;;;;;;1.92;100.00;99402.84;4968907;28;20046;-53
2021/12/09 07:45:59;;;;;;;20.02;10.32;;;;;;;1.99;100.00;99407.88;4956921;28;20046;-52
2021/12/09 07:48:30;;;;;;;20.60;11.00;;;;;;;1.96;100.00;99409.69;4966077;28;20050;-54
2021/12/09 07:51:01;;;;;;;23.33;10.43;;;;;;;1.98;100.00;99408.75;4963762;28;20046;-52
2021/12/09 07:53:29;;;;;;;18.38;10.60;;;;;;;1.95;100.00;99413.22;4948257;28;20046;-54
2021/12/09 07:55:55;;;;;;;23.23;11.95;;;;;;;1.97;100.00;99416.63;4958718;28;20038;-52
2021/12/09 07:59:18;;;;;;;22.77;11.52;;;;;;;2.01;100.00;99423.50;4962406;28;20061;-54
2021/12/09 08:01:47;;;;;;;22.60;11.32;;;;;;;2.01;100.00;99420.88;4964486;28;20054;-53
2021/12/09 08:04:20;;;;;;;20.80;11.03;;;;;;;2.00;100.00;99412.19;4970201;28;20043;-55
2021/12/09 08:07:03;;;;;;;19.73;11.50;;;;;;;1.98;100.00;99423.56;4971044;28;20039;-54
2021/12/09 08:09:30;;;;;;;25.30;11.30;;;;;;;2.06;100.00;99422.44;4960752;28;20934;-54
2021/12/09 08:12:08;;;;;;;21.20;10.95;;;;;;;2.06;100.00;99417.22;4963324;28;20680;-54
2021/12/09 08:15:00;;;;;;;20.80;10.63;;;;;;;2.05;100.00;99420.72;4964936;28;20046;-51
2021/12/09 08:20:22;;;;;;;21.13;10.60;;;;;;;2.07;100.00;99418.09;4961882;28;20038;-53
2021/12/09 08:22:59;;;;;;;21.38;10.30;;;;;;;2.10;100.00;99418.84;4959815;28;20073;-53
2021/12/09 08:25:37;;;;;;;17.08;10.45;;;;;;;2.13;100.00;99414.44;4962978;28;20046;-54
2021/12/09 08:28:32;;;;;;;20.98;11.25;;;;;;;2.18;100.00;99418.66;4970687;28;20050;-52
2021/12/09 08:31:00;;;;;;;19.13;10.48;;;;;;;2.23;100.00;99414.13;4960275;28;20051;-52
2021/12/09 08:33:34;;;;;;;19.77;10.18;;;;;;;2.25;100.00;99414.94;4969225;28;20057;-53
2021/12/09 08:36:26;;;;;;;20.00;10.18;;;;;;;2.30;100.00;99407.00;4955891;28;20473;-52
2021/12/09 08:39:04;;;;;;;18.67;10.63;;;;;;;2.33;100.00;99409.53;4962612;28;20516;-51
2021/12/09 08:41:30;;;;;;;20.27;10.02;;;;;;;2.34;100.00;99416.47;4965058;28;20678;-59
2021/12/09 08:44:01;;;;;;;20.10;10.80;;;;;;;2.39;100.00;99409.31;4968048;28;20075;-52
2021/12/09 08:46:32;;;;;;;;;;;;;;;2.44;99.92;99413.53;4959121;28;20616;-51
2021/12/09 08:49:17;;;;;;;24.60;10.80;;;;;;;2.45;99.28;99412.63;4962904;28;19930;-52
2021/12/09 08:51:44;;;;;;;18.52;10.30;;;;;;;2.49;98.77;99415.16;4967763;28;20048;-51
2021/12/09 08:54:11;;;;;;;18.23;11.07;;;;;;;2.44;99.20;99423.13;4967039;28;20046;-52
2021/12/09 08:56:37;;;;;;;18.67;11.40;;;;;;;2.36;99.00;99415.50;4959846;28;20138;-52
2021/12/09 08:59:06;;;;;;;24.05;11.20;;;;;;;2.47;99.49;99436.94;4962826;28;20047;-53
2021/12/09 09:01:42;;;;;;;19.70;10.95;;;;;;;2.53;99.09;99435.03;4968813;28;20047;-53
2021/12/09 09:04:09;;;;;;;19.85;11.30;;;;;;;2.54;99.23;99444.59;4970184;28;20077;-53
2021/12/09 09:06:36;;;;;;;20.98;11.10;;;;;;;2.52;99.58;99441.19;4964885;28;20047;-53
2021/12/09 09:09:12;;;;;;;20.45;11.57;;;;;;;2.55;98.72;99447.16;4968384;28;20069;-52
2021/12/09 09:11:49;;;;;;;20.02;10.45;;;;;;;2.61;98.38;99446.13;4967894;28;20603;-52
2021/12/09 09:14:15;;;;;;;19.50;10.52;;;;;;;2.54;97.53;99428.91;4970878;28;20043;-54
2021/12/09 09:16:45;;;;;;;21.02;11.25;;;;;;;2.71;97.46;99443.19;4961381;28;20126;-54
2021/12/09 09:19:15;;;;;;;21.35;10.57;;;;;;;2.69;97.89;99451.97;4970604;28;20465;-53
2021/12/09 09:21:43;;;;;;;15.95;10.57;;;;;;;2.75;97.69;99439.59;4968189;28;20055;-51
2021/12/09 09:24:13;;;;;;;18.10;10.30;;;;;;;2.78;96.67;99436.03;4953088;28;20054;-52
2021/12/09 09:26:41;;;;;;;19.38;11.10;;;;;;;2.79;96.25;99445.59;4965322;28;20077;-53
2021/12/09 09:29:12;;;;;;;18.90;9.77;;;;;;;2.87;95.11;99437.50;4969312;28;20054;-54
2021/12/09 09:31:40;;;;;;;16.00;10.57;;;;;;;2.87;96.06;99438.34;4970509;28;20126;-54
2021/12/09 09:34:08;;;;;;;21.38;10.60;;;;;;;2.91;96.13;99437.34;4972534;28;20436;-54
2021/12/09 09:36:39;;;;;;;21.55;11.00;;;;;;;2.98;95.62;99438.03;4963497;28;20051;-54
2021/12/09 09:39:16;;;;;;;18.10;9.60;;;;;;;3.03;95.05;99434.34;4972640;28;20098;-52
2021/12/09 09:42:20;;;;;;;19.48;10.68;;;;;;;3.08;94.97;99436.84;4972375;28;20055;-52
2021/12/09 09:44:57;;;;;;;19.42;9.95;;;;;;;3.04;94.18;99433.44;4952784;28;20039;-53
2021/12/09 09:47:41;;;;;;;;;;;;;;;3.01;94.13;99438.78;4960535;28;20142;-53
2021/12/09 09:50:11;;;;;;;18.17;10.32;;;;;;;3.06;94.27;99444.72;4971670;28;20295;-53
2021/12/09 09:52:47;;;;;;;19.17;10.10;;;;;;;3.09;93.88;99435.94;4970413;28;20055;-52
2021/12/09 09:55:20;;;;;;;19.10;10.23;;;;;;;3.07;93.66;99440.34;4971686;28;20133;-52
2021/12/09 09:57:54;;;;;;;19.88;10.23;;;;;;;3.08;92.96;99447.28;4960347;28;20050;-51
2021/12/09 10:00:22;;;;;;;22.02;9.98;;;;;;;3.15;92.22;99446.19;4968118;28;20528;-54
2021/12/09 10:02:53;;;;;;;16.10;9.57;;;;;;;3.12;92.15;99455.00;4970234;28;20047;-53
2021/12/09 10:05:38;;;;;;;18.80;9.98;;;;;;;3.18;92.69;99459.16;4965571;28;20043;-53
2021/12/09 10:08:22;;;;;;;14.40;8.85;;;;;;;3.36;91.77;99457.72;4956565;28;20042;-51
2021/12/09 10:10:49;;;;;;;16.40;9.48;;;;;;;3.42;90.96;99454.91;4964815;28;20126;-52
2021/12/09 10:13:34;;;;;;;22.67;9.95;;;;;;;3.46;90.98;99461.75;4968952;28;20042;-62
2021/12/09 10:16:25;;;;;;;18.75;9.82;;;;;;;3.48;89.96;99460.78;4963661;28;20054;-52
2021/12/09 10:18:56;;;;;;;14.70;9.25;;;;;;;3.43;90.25;99449.63;4962586;28;20076;-54
2021/12/09 10:21:32;;;;;;;16.90;8.95;;;;;;;3.22;90.56;99434.63;4948976;28;20075;-55
2021/12/09 10:24:30;;;;;;;16.42;8.75;;;;;;;3.35;91.79;99453.38;4963592;28;20054;-53
2021/12/09 10:26:56;;;;;;;16.67;9.63;;;;;;;3.46;91.31;99446.88;4961463;28;20385;-53
2021/12/09 10:30:03;;;;;;;15.48;9.15;;;;;;;3.51;91.11;99455.44;4961808;28;20071;-52
2021/12/09 10:32:34;;;;;;;15.95;9.77;;;;;;;3.62;90.74;99454.25;4970703;28;20501;-54
2021/12/09 10:35:31;;;;;;;17.70;10.02;;;;;;;3.77;90.45;99444.13;4964773;28;20086;-54
2021/12/09 10:38:11;;;;;;;18.27;9.55;;;;;;;3.91;89.01;99450.63;4959688;28;20047;-53
2021/12/09 10:40:49;;;;;;;18.85;9.73;;;;;;;4.05;88.22;99449.25;4972360;28;20192;-53
2021/12/09 10:43:23;;;;;;;13.38;8.77;;;;;;;4.06;88.04;99435.22;4949602;28;20654;-53
2021/12/09 10:45:50;;;;;;;14.90;9.27;;;;;;;4.34;87.73;99449.94;4946237;28;20051;-51
2021/12/09 10:48:25;;;;;;;18.33;8.75;;;;;;;4.37;86.26;99429.72;4942269;28;20039;-53
2021/12/09 10:53:48;;;;;;;13.77;8.18;;;;;;;4.56;85.84;99438.59;4948433;28;20444;-55
2021/12/09 10:56:30;;;;;;;15.15;7.50;;;;;;;4.53;85.10;99440.50;4945401;28;20501;-55
2021/12/09 10:59:03;;;;;;;17.80;8.15;;;;;;;4.49;85.12;99439.75;4943844;28;20042;-53
2021/12/09 11:01:30;;;;;;;14.77;7.38;;;;;;;4.50;84.82;99436.22;4956269;28;20047;-50
2021/12/09 11:04:06;;;;;;;14.07;7.20;;;;;;;4.54;85.35;99432.56;4945745;28;20102;-53
2021/12/09 11:06:53;;;;;;;12.88;6.70;;;;;;;4.61;84.28;99440.19;4944869;28;20051;-53
2021/12/09 11:09:23;;;;;;;13.43;6.40;;;;;;;4.65;84.56;99440.03;4946645;28;20049;-52
2021/12/09 11:11:55;;;;;;;15.35;6.57;;;;;;;4.64;84.29;99437.47;4951480;28;20053;-54
2021/12/09 11:14:29;;;;;;;9.88;6.22;;;;;;;4.65;83.83;99440.03;4950650;28;20047;-52
2021/12/09 11:17:08;;;;;;;15.18;5.72;;;;;;;4.56;82.92;99451.69;4942083;28;20069;-53
2021/12/09 11:19:46;;;;;;;11.27;5.32;;;;;;;4.42;83.21;99455.75;4945196;28;20050;-53
2021/12/09 11:22:37;;;;;;;11.80;5.47;;;;;;;4.41;83.41;99457.50;4950950;28;20039;-53
2021/12/09 11:25:28;;;;;;;10.00;4.30;;;;;;;4.25;82.72;99453.75;4946310;28;20054;-53
2021/12/09 11:28:09;;;;;;;9.77;4.80;;;;;;;4.25;82.46;99458.97;4941214;28;20050;-53
2021/12/09 11:31:16;;;;;;;9.07;4.28;;;;;;;4.23;83.02;99455.59;4956653;28;20497;-54
2021/12/09 11:34:11;;;;;;;8.20;4.28;;;;;;;4.33;81.82;99443.00;4946620;28;20055;-52
2021/12/09 11:37:05;;;;;;;7.85;4.53;;;;;;;4.50;81.17;99451.94;4949439;28;20054;-51
2021/12/09 11:39:51;;;;;;;10.32;4.97;;;;;;;4.54;81.02;99456.19;4952129;28;20068;-53
2021/12/09 11:42:36;;;;;;;10.85;5.40;;;;;;;4.59;80.98;99462.06;4957027;28;20059;-53
2021/12/09 11:45:17;;;;;;;7.50;4.55;;;;;;;4.54;79.75;99450.94;4963704;28;20150;-51
2021/12/09 11:47:54;;;;;;;13.48;4.47;;;;;;;4.58;81.13;99455.13;4959387;28;20102;-52
2021/12/09 11:50:30;;;;;;;10.25;4.88;;;;;;;4.78;80.23;99456.13;4948766;28;20175;-52
2021/12/09 11:53:16;;;;;;;11.18;5.63;;;;;;;4.75;79.62;99453.63;4966949;28;20074;-54
2021/12/09 11:56:08;;;;;;;10.00;4.90;;;;;;;4.72;79.28;99448.53;4955666;28;20563;-57
2021/12/09 11:58:54;;;;;;;12.48;5.05;;;;;;;4.67;80.03;99443.44;4961299;28;20046;-52
2021/12/09 12:13:48;;;;;;;11.55;5.38;;;;;;;4.67;81.05;99442.59;4962590;28;20521;-53
2021/12/09 12:19:55;;;;;;;11.85;5.35;;;;;;;4.50;82.49;99451.94;4960261;28;20382;-53
2021/12/09 12:40:40;;;;;;;12.85;5.40;;;;;;;4.37;84.15;99441.97;4967555;28;20494;-53
2021/12/09 12:44:03;;;;;;;8.85;4.40;;;;;;;4.32;82.71;99444.75;4942942;28;20043;-53
2021/12/09 12:46:58;;;;;;;16.60;5.10;;;;;;;4.36;82.71;99443.75;4898747;28;20058;-53
2021/12/09 12:49:37;;;;;;;10.68;4.75;;;;;;;4.37;82.12;99448.06;4947759;28;20585;-53